sensor_id;sensor_type;location;lat;lon;timestamp;temperature;humidity
76967;DHT22;65904;52.278;20.972;2023-06-10T00:01:45;20.40;99.90
76967;DHT22;65904;52.278;20.972;2023-06-10T00:04:34;20.30;99.90
76967;DHT22;65904;52.278;20.972;2023-06-10T00:07:21;20.30;99.90
76967;DHT22;65904;52.278;20.972;2023-06-10T00:10:08;20.20;99.90
76967;DHT22;65904;52.278;20.972;2023-06-10T00:12:55;20.20;99.90
76967;DHT22;65904;52.278;20.972;2023-06-10T00:15:42;20.10;99.90
76967;DHT22;65904;52.278;20.972;2023-06-10T00:18:28;20.00;99.90
76967;DHT22;65904;52.278;20.972;2023-06-10T00:21:17;19.90;99.90
76967;DHT22;65904;52.278;20.972;2023-06-10T00:24:04;19.90;99.90
76967;DHT22;65904;52.278;20.972;2023-06-10T00:26:51;19.90;99.90
76967;DHT22;65904;52.278;20.972;2023-06-10T00:29:37;19.80;99.90
76967;DHT22;65904;52.278;20.972;2023-06-10T00:32:24;19.70;99.90
76967;DHT22;65904;52.278;20.972;2023-06-10T00:35:10;19.70;99.90
76967;DHT22;65904;52.278;20.972;2023-06-10T00:37:57;19.80;99.90
76967;DHT22;65904;52.278;20.972;2023-06-10T00:40:44;19.60;99.90
76967;DHT22;65904;52.278;20.972;2023-06-10T00:43:30;19.50;99.90
76967;DHT22;65904;52.278;20.972;2023-06-10T00:46:17;19.50;99.90
76967;DHT22;65904;52.278;20.972;2023-06-10T00:49:04;19.40;99.90
76967;DHT22;65904;52.278;20.972;2023-06-10T00:51:50;19.40;99.90
76967;DHT22;65904;52.278;20.972;2023-06-10T00:54:39;19.30;99.90
76967;DHT22;65904;52.278;20.972;2023-06-10T00:57:27;19.30;99.90
76967;DHT22;65904;52.278;20.972;2023-06-10T01:00:16;19.30;99.90
76967;DHT22;65904;52.278;20.972;2023-06-10T01:03:03;19.20;99.90
76967;DHT22;65904;52.278;20.972;2023-06-10T01:05:57;19.10;99.90
76967;DHT22;65904;52.278;20.972;2023-06-10T01:08:57;19.00;99.90
76967;DHT22;65904;52.278;20.972;2023-06-10T01:11:56;18.80;99.90
76967;DHT22;65904;52.278;20.972;2023-06-10T01:14:45;18.80;99.90
76967;DHT22;65904;52.278;20.972;2023-06-10T01:17:31;18.70;99.90
76967;DHT22;65904;52.278;20.972;2023-06-10T01:20:17;18.70;99.80
76967;DHT22;65904;52.278;20.972;2023-06-10T01:23:05;18.70;99.80
76967;DHT22;65904;52.278;20.972;2023-06-10T01:25:55;18.60;99.90
76967;DHT22;65904;52.278;20.972;2023-06-10T01:28:47;18.60;99.90
76967;DHT22;65904;52.278;20.972;2023-06-10T01:31:41;18.60;99.80
76967;DHT22;65904;52.278;20.972;2023-06-10T01:34:31;18.50;99.90
76967;DHT22;65904;52.278;20.972;2023-06-10T01:37:19;18.50;99.90
76967;DHT22;65904;52.278;20.972;2023-06-10T01:40:09;18.40;99.90
76967;DHT22;65904;52.278;20.972;2023-06-10T01:42:56;18.40;99.90
76967;DHT22;65904;52.278;20.972;2023-06-10T01:45:42;18.50;99.90
76967;DHT22;65904;52.278;20.972;2023-06-10T01:48:28;18.40;99.90
76967;DHT22;65904;52.278;20.972;2023-06-10T01:51:15;18.30;99.90
76967;DHT22;65904;52.278;20.972;2023-06-10T01:54:01;18.30;99.90
76967;DHT22;65904;52.278;20.972;2023-06-10T01:56:49;18.30;99.90
76967;DHT22;65904;52.278;20.972;2023-06-10T01:59:35;18.20;99.90
76967;DHT22;65904;52.278;20.972;2023-06-10T02:02:23;18.10;99.90
76967;DHT22;65904;52.278;20.972;2023-06-10T02:05:10;18.10;99.90
76967;DHT22;65904;52.278;20.972;2023-06-10T02:07:56;18.10;99.90
76967;DHT22;65904;52.278;20.972;2023-06-10T02:10:42;18.00;99.90
76967;DHT22;65904;52.278;20.972;2023-06-10T02:13:31;18.00;99.90
76967;DHT22;65904;52.278;20.972;2023-06-10T02:16:17;17.90;99.90
76967;DHT22;65904;52.278;20.972;2023-06-10T02:19:03;18.00;99.90
76967;DHT22;65904;52.278;20.972;2023-06-10T02:21:51;17.90;99.90
76967;DHT22;65904;52.278;20.972;2023-06-10T02:24:38;17.90;99.90
76967;DHT22;65904;52.278;20.972;2023-06-10T02:27:24;17.80;99.90
76967;DHT22;65904;52.278;20.972;2023-06-10T02:30:13;17.70;99.90
76967;DHT22;65904;52.278;20.972;2023-06-10T02:33:00;17.70;99.90
76967;DHT22;65904;52.278;20.972;2023-06-10T02:35:47;17.70;99.90
76967;DHT22;65904;52.278;20.972;2023-06-10T02:38:34;17.70;99.90
76967;DHT22;65904;52.278;20.972;2023-06-10T02:41:20;17.70;99.90
76967;DHT22;65904;52.278;20.972;2023-06-10T02:44:09;17.70;99.90
76967;DHT22;65904;52.278;20.972;2023-06-10T02:46:56;17.70;99.90
76967;DHT22;65904;52.278;20.972;2023-06-10T02:49:43;17.60;99.90
76967;DHT22;65904;52.278;20.972;2023-06-10T02:52:30;17.60;99.90
76967;DHT22;65904;52.278;20.972;2023-06-10T02:55:16;17.60;99.90
76967;DHT22;65904;52.278;20.972;2023-06-10T02:58:07;17.60;99.90
76967;DHT22;65904;52.278;20.972;2023-06-10T03:00:53;17.60;99.90
76967;DHT22;65904;52.278;20.972;2023-06-10T03:03:41;17.60;99.90
76967;DHT22;65904;52.278;20.972;2023-06-10T03:06:30;17.70;99.90
76967;DHT22;65904;52.278;20.972;2023-06-10T03:09:27;17.60;99.90
76967;DHT22;65904;52.278;20.972;2023-06-10T03:12:16;17.60;99.90
76967;DHT22;65904;52.278;20.972;2023-06-10T03:15:06;17.60;99.90
76967;DHT22;65904;52.278;20.972;2023-06-10T03:17:53;17.60;99.90
76967;DHT22;65904;52.278;20.972;2023-06-10T03:20:41;17.70;99.90
76967;DHT22;65904;52.278;20.972;2023-06-10T03:23:28;17.70;99.90
76967;DHT22;65904;52.278;20.972;2023-06-10T03:26:15;17.70;99.90
76967;DHT22;65904;52.278;20.972;2023-06-10T03:29:04;17.80;99.90
76967;DHT22;65904;52.278;20.972;2023-06-10T03:31:50;17.80;99.90
76967;DHT22;65904;52.278;20.972;2023-06-10T03:34:36;17.80;99.90
76967;DHT22;65904;52.278;20.972;2023-06-10T03:37:25;17.80;99.90
76967;DHT22;65904;52.278;20.972;2023-06-10T03:40:12;17.80;99.90
76967;DHT22;65904;52.278;20.972;2023-06-10T03:43:02;17.90;99.90
76967;DHT22;65904;52.278;20.972;2023-06-10T03:45:49;17.90;99.90
76967;DHT22;65904;52.278;20.972;2023-06-10T03:48:36;18.00;99.90
76967;DHT22;65904;52.278;20.972;2023-06-10T03:51:23;18.00;99.90
76967;DHT22;65904;52.278;20.972;2023-06-10T03:54:11;18.00;99.90
76967;DHT22;65904;52.278;20.972;2023-06-10T03:56:57;18.00;99.90
76967;DHT22;65904;52.278;20.972;2023-06-10T03:59:43;18.10;99.90
76967;DHT22;65904;52.278;20.972;2023-06-10T04:02:29;18.10;99.90
76967;DHT22;65904;52.278;20.972;2023-06-10T04:05:18;18.20;99.90
76967;DHT22;65904;52.278;20.972;2023-06-10T04:08:06;18.20;99.90
76967;DHT22;65904;52.278;20.972;2023-06-10T04:10:54;18.20;99.90
76967;DHT22;65904;52.278;20.972;2023-06-10T04:13:40;18.30;99.90
76967;DHT22;65904;52.278;20.972;2023-06-10T04:16:26;18.30;99.90
76967;DHT22;65904;52.278;20.972;2023-06-10T04:19:12;18.40;99.90
76967;DHT22;65904;52.278;20.972;2023-06-10T04:22:00;18.40;99.90
76967;DHT22;65904;52.278;20.972;2023-06-10T04:24:47;18.40;99.90
76967;DHT22;65904;52.278;20.972;2023-06-10T04:27:35;18.50;99.90
76967;DHT22;65904;52.278;20.972;2023-06-10T04:30:21;18.60;99.90
76967;DHT22;65904;52.278;20.972;2023-06-10T04:33:09;18.60;99.90
76967;DHT22;65904;52.278;20.972;2023-06-10T04:35:57;18.60;99.90
76967;DHT22;65904;52.278;20.972;2023-06-10T04:38:47;18.70;99.90
76967;DHT22;65904;52.278;20.972;2023-06-10T04:41:33;18.90;99.90
76967;DHT22;65904;52.278;20.972;2023-06-10T04:44:20;18.90;99.90
76967;DHT22;65904;52.278;20.972;2023-06-10T04:47:06;19.00;99.90
76967;DHT22;65904;52.278;20.972;2023-06-10T04:49:54;18.90;99.90
76967;DHT22;65904;52.278;20.972;2023-06-10T04:52:40;19.00;99.90
76967;DHT22;65904;52.278;20.972;2023-06-10T04:55:28;19.10;99.90
76967;DHT22;65904;52.278;20.972;2023-06-10T04:58:14;19.20;99.90
76967;DHT22;65904;52.278;20.972;2023-06-10T05:01:02;19.20;99.90
76967;DHT22;65904;52.278;20.972;2023-06-10T05:03:47;19.20;99.90
76967;DHT22;65904;52.278;20.972;2023-06-10T05:06:34;19.20;99.90
76967;DHT22;65904;52.278;20.972;2023-06-10T05:09:20;19.10;99.90
76967;DHT22;65904;52.278;20.972;2023-06-10T05:12:08;19.20;99.90
76967;DHT22;65904;52.278;20.972;2023-06-10T05:14:54;19.20;99.90
76967;DHT22;65904;52.278;20.972;2023-06-10T05:17:42;19.30;99.90
76967;DHT22;65904;52.278;20.972;2023-06-10T05:20:28;19.30;99.90
76967;DHT22;65904;52.278;20.972;2023-06-10T05:23:15;19.40;99.90
76967;DHT22;65904;52.278;20.972;2023-06-10T05:26:02;19.40;99.90
76967;DHT22;65904;52.278;20.972;2023-06-10T05:28:48;19.40;99.90
76967;DHT22;65904;52.278;20.972;2023-06-10T05:31:34;19.40;99.90
76967;DHT22;65904;52.278;20.972;2023-06-10T05:34:22;19.50;99.90
76967;DHT22;65904;52.278;20.972;2023-06-10T05:37:08;19.60;99.90
76967;DHT22;65904;52.278;20.972;2023-06-10T05:39:54;19.70;99.90
76967;DHT22;65904;52.278;20.972;2023-06-10T05:42:40;19.70;99.90
76967;DHT22;65904;52.278;20.972;2023-06-10T05:45:27;19.70;99.90
76967;DHT22;65904;52.278;20.972;2023-06-10T05:48:13;19.80;99.90
76967;DHT22;65904;52.278;20.972;2023-06-10T05:51:01;19.90;99.90
76967;DHT22;65904;52.278;20.972;2023-06-10T05:53:47;19.90;99.90
76967;DHT22;65904;52.278;20.972;2023-06-10T05:56:33;20.10;99.90
76967;DHT22;65904;52.278;20.972;2023-06-10T05:59:19;20.20;99.90
76967;DHT22;65904;52.278;20.972;2023-06-10T06:02:07;20.20;99.90
76967;DHT22;65904;52.278;20.972;2023-06-10T06:04:53;20.30;99.90
76967;DHT22;65904;52.278;20.972;2023-06-10T06:07:41;20.40;99.90
76967;DHT22;65904;52.278;20.972;2023-06-10T06:10:27;20.50;99.90
76967;DHT22;65904;52.278;20.972;2023-06-10T06:13:14;20.50;99.90
76967;DHT22;65904;52.278;20.972;2023-06-10T06:16:00;20.60;99.90
76967;DHT22;65904;52.278;20.972;2023-06-10T06:18:46;20.60;99.90
76967;DHT22;65904;52.278;20.972;2023-06-10T06:21:32;20.70;99.90
76967;DHT22;65904;52.278;20.972;2023-06-10T06:24:19;20.80;99.90
76967;DHT22;65904;52.278;20.972;2023-06-10T06:27:06;20.90;99.90
76967;DHT22;65904;52.278;20.972;2023-06-10T06:29:52;20.90;99.90
76967;DHT22;65904;52.278;20.972;2023-06-10T06:32:38;21.10;99.90
76967;DHT22;65904;52.278;20.972;2023-06-10T06:35:25;21.10;99.90
76967;DHT22;65904;52.278;20.972;2023-06-10T06:38:11;21.10;99.90
76967;DHT22;65904;52.278;20.972;2023-06-10T06:40:59;21.20;99.90
76967;DHT22;65904;52.278;20.972;2023-06-10T06:43:47;21.30;99.90
76967;DHT22;65904;52.278;20.972;2023-06-10T06:46:44;21.40;99.90
76967;DHT22;65904;52.278;20.972;2023-06-10T06:49:30;21.60;99.90
76967;DHT22;65904;52.278;20.972;2023-06-10T06:52:17;21.60;99.90
76967;DHT22;65904;52.278;20.972;2023-06-10T06:55:04;21.70;99.90
76967;DHT22;65904;52.278;20.972;2023-06-10T06:57:52;21.70;99.90
76967;DHT22;65904;52.278;20.972;2023-06-10T07:00:38;21.90;99.90
76967;DHT22;65904;52.278;20.972;2023-06-10T07:03:24;21.90;99.90
76967;DHT22;65904;52.278;20.972;2023-06-10T07:06:10;21.90;99.90
76967;DHT22;65904;52.278;20.972;2023-06-10T07:08:56;22.00;99.90
76967;DHT22;65904;52.278;20.972;2023-06-10T07:11:42;22.10;99.90
76967;DHT22;65904;52.278;20.972;2023-06-10T07:14:30;22.10;99.90
76967;DHT22;65904;52.278;20.972;2023-06-10T07:17:16;22.20;99.90
76967;DHT22;65904;52.278;20.972;2023-06-10T07:20:03;22.20;99.90
76967;DHT22;65904;52.278;20.972;2023-06-10T07:22:50;22.20;99.90
76967;DHT22;65904;52.278;20.972;2023-06-10T07:25:36;22.40;99.90
76967;DHT22;65904;52.278;20.972;2023-06-10T07:28:22;22.50;99.90
76967;DHT22;65904;52.278;20.972;2023-06-10T07:31:10;22.50;99.90
76967;DHT22;65904;52.278;20.972;2023-06-10T07:33:56;22.60;99.90
76967;DHT22;65904;52.278;20.972;2023-06-10T07:36:43;22.70;99.90
76967;DHT22;65904;52.278;20.972;2023-06-10T07:39:29;22.80;99.90
76967;DHT22;65904;52.278;20.972;2023-06-10T07:42:15;22.90;99.90
76967;DHT22;65904;52.278;20.972;2023-06-10T07:45:02;23.20;99.90
76967;DHT22;65904;52.278;20.972;2023-06-10T07:47:50;23.30;99.90
76967;DHT22;65904;52.278;20.972;2023-06-10T07:50:36;23.40;99.80
76967;DHT22;65904;52.278;20.972;2023-06-10T07:53:22;23.50;99.70
76967;DHT22;65904;52.278;20.972;2023-06-10T07:56:08;23.60;99.90
76967;DHT22;65904;52.278;20.972;2023-06-10T07:58:55;23.70;99.90
76967;DHT22;65904;52.278;20.972;2023-06-10T08:01:40;23.80;99.30
76967;DHT22;65904;52.278;20.972;2023-06-10T08:04:29;23.80;99.90
76967;DHT22;65904;52.278;20.972;2023-06-10T08:07:16;23.80;99.30
76967;DHT22;65904;52.278;20.972;2023-06-10T08:10:03;23.90;98.40
76967;DHT22;65904;52.278;20.972;2023-06-10T08:12:50;24.00;98.40
76967;DHT22;65904;52.278;20.972;2023-06-10T08:15:36;24.00;98.70
76967;DHT22;65904;52.278;20.972;2023-06-10T08:18:22;24.10;98.80
76967;DHT22;65904;52.278;20.972;2023-06-10T08:21:10;24.00;98.80
76967;DHT22;65904;52.278;20.972;2023-06-10T08:23:56;24.00;98.70
76967;DHT22;65904;52.278;20.972;2023-06-10T08:26:42;24.20;98.50
76967;DHT22;65904;52.278;20.972;2023-06-10T08:29:29;24.30;98.60
76967;DHT22;65904;52.278;20.972;2023-06-10T08:32:16;24.40;97.80
76967;DHT22;65904;52.278;20.972;2023-06-10T08:35:02;24.50;98.10
76967;DHT22;65904;52.278;20.972;2023-06-10T08:37:50;24.60;97.60
76967;DHT22;65904;52.278;20.972;2023-06-10T08:40:36;24.70;98.40
76967;DHT22;65904;52.278;20.972;2023-06-10T08:43:31;24.60;97.40
76967;DHT22;65904;52.278;20.972;2023-06-10T08:46:17;24.90;97.00
76967;DHT22;65904;52.278;20.972;2023-06-10T08:49:06;24.90;98.00
76967;DHT22;65904;52.278;20.972;2023-06-10T08:51:58;25.20;96.30
76967;DHT22;65904;52.278;20.972;2023-06-10T08:54:49;25.20;95.80
76967;DHT22;65904;52.278;20.972;2023-06-10T08:57:37;25.30;95.60
76967;DHT22;65904;52.278;20.972;2023-06-10T09:00:23;25.40;94.70
76967;DHT22;65904;52.278;20.972;2023-06-10T09:03:10;25.40;95.00
76967;DHT22;65904;52.278;20.972;2023-06-10T09:05:57;25.30;94.50
76967;DHT22;65904;52.278;20.972;2023-06-10T09:08:43;25.40;94.70
76967;DHT22;65904;52.278;20.972;2023-06-10T09:11:31;25.50;93.80
76967;DHT22;65904;52.278;20.972;2023-06-10T09:14:17;25.60;93.40
76967;DHT22;65904;52.278;20.972;2023-06-10T09:17:05;25.80;92.90
76967;DHT22;65904;52.278;20.972;2023-06-10T09:19:52;25.80;91.10
76967;DHT22;65904;52.278;20.972;2023-06-10T09:22:41;26.10;90.60
76967;DHT22;65904;52.278;20.972;2023-06-10T09:25:35;26.30;90.20
76967;DHT22;65904;52.278;20.972;2023-06-10T09:28:24;26.40;88.50
76967;DHT22;65904;52.278;20.972;2023-06-10T09:31:11;26.60;87.20
76967;DHT22;65904;52.278;20.972;2023-06-10T09:34:06;26.70;84.90
76967;DHT22;65904;52.278;20.972;2023-06-10T09:36:53;27.00;81.90
76967;DHT22;65904;52.278;20.972;2023-06-10T09:39:40;27.40;79.50
76967;DHT22;65904;52.278;20.972;2023-06-10T09:42:26;27.50;78.30
76967;DHT22;65904;52.278;20.972;2023-06-10T09:45:14;27.80;77.50
76967;DHT22;65904;52.278;20.972;2023-06-10T09:48:00;28.30;76.50
76967;DHT22;65904;52.278;20.972;2023-06-10T09:50:47;28.50;72.50
76967;DHT22;65904;52.278;20.972;2023-06-10T09:53:34;28.40;72.20
76967;DHT22;65904;52.278;20.972;2023-06-10T09:56:20;28.10;75.00
76967;DHT22;65904;52.278;20.972;2023-06-10T09:59:07;28.40;72.50
76967;DHT22;65904;52.278;20.972;2023-06-10T10:01:56;28.40;70.40
76967;DHT22;65904;52.278;20.972;2023-06-10T10:04:42;28.40;63.60
76967;DHT22;65904;52.278;20.972;2023-06-10T10:07:28;28.60;61.50
76967;DHT22;65904;52.278;20.972;2023-06-10T10:10:14;28.40;61.50
76967;DHT22;65904;52.278;20.972;2023-06-10T10:13:01;28.70;60.00
76967;DHT22;65904;52.278;20.972;2023-06-10T10:15:48;28.80;59.70
76967;DHT22;65904;52.278;20.972;2023-06-10T10:18:39;28.80;58.70
76967;DHT22;65904;52.278;20.972;2023-06-10T10:21:31;28.80;57.50
76967;DHT22;65904;52.278;20.972;2023-06-10T10:24:21;28.90;58.60
76967;DHT22;65904;52.278;20.972;2023-06-10T10:27:11;29.10;58.80
76967;DHT22;65904;52.278;20.972;2023-06-10T10:30:02;29.30;58.40
76967;DHT22;65904;52.278;20.972;2023-06-10T10:32:57;29.60;57.90
76967;DHT22;65904;52.278;20.972;2023-06-10T10:35:47;29.70;56.70
76967;DHT22;65904;52.278;20.972;2023-06-10T10:38:33;29.80;56.80
76967;DHT22;65904;52.278;20.972;2023-06-10T10:41:21;30.10;56.40
76967;DHT22;65904;52.278;20.972;2023-06-10T10:44:09;30.20;55.20
76967;DHT22;65904;52.278;20.972;2023-06-10T10:46:58;30.40;55.40
76967;DHT22;65904;52.278;20.972;2023-06-10T10:49:50;30.60;55.20
76967;DHT22;65904;52.278;20.972;2023-06-10T10:52:53;30.80;53.90
76967;DHT22;65904;52.278;20.972;2023-06-10T10:55:39;30.90;52.80
76967;DHT22;65904;52.278;20.972;2023-06-10T10:58:25;31.20;51.70
76967;DHT22;65904;52.278;20.972;2023-06-10T11:01:12;31.30;51.50
76967;DHT22;65904;52.278;20.972;2023-06-10T11:03:59;31.60;51.20
76967;DHT22;65904;52.278;20.972;2023-06-10T11:06:52;31.90;51.00
76967;DHT22;65904;52.278;20.972;2023-06-10T11:09:57;32.30;49.80
76967;DHT22;65904;52.278;20.972;2023-06-10T11:12:51;32.60;48.00
76967;DHT22;65904;52.278;20.972;2023-06-10T11:15:42;32.70;48.20
76967;DHT22;65904;52.278;20.972;2023-06-10T11:18:29;32.70;48.40
76967;DHT22;65904;52.278;20.972;2023-06-10T11:21:18;33.20;48.70
76967;DHT22;65904;52.278;20.972;2023-06-10T11:24:12;33.90;47.60
76967;DHT22;65904;52.278;20.972;2023-06-10T11:27:18;33.00;47.70
76967;DHT22;65904;52.278;20.972;2023-06-10T11:30:18;33.10;48.10
76967;DHT22;65904;52.278;20.972;2023-06-10T11:33:05;32.60;48.00
76967;DHT22;65904;52.278;20.972;2023-06-10T11:35:51;32.30;49.20
76967;DHT22;65904;52.278;20.972;2023-06-10T11:38:38;31.80;48.80
76967;DHT22;65904;52.278;20.972;2023-06-10T11:41:25;32.50;49.20
76967;DHT22;65904;52.278;20.972;2023-06-10T11:44:14;33.50;48.80
76967;DHT22;65904;52.278;20.972;2023-06-10T11:47:00;33.80;48.00
76967;DHT22;65904;52.278;20.972;2023-06-10T11:49:56;33.50;47.50
76967;DHT22;65904;52.278;20.972;2023-06-10T11:52:42;34.30;46.70
76967;DHT22;65904;52.278;20.972;2023-06-10T11:55:41;35.30;45.60
76967;DHT22;65904;52.278;20.972;2023-06-10T11:58:27;36.00;44.20
76967;DHT22;65904;52.278;20.972;2023-06-10T12:01:20;36.60;40.80
76967;DHT22;65904;52.278;20.972;2023-06-10T12:04:10;37.20;40.00
76967;DHT22;65904;52.278;20.972;2023-06-10T12:06:57;37.60;39.40
76967;DHT22;65904;52.278;20.972;2023-06-10T12:09:43;37.60;38.40
76967;DHT22;65904;52.278;20.972;2023-06-10T12:12:30;38.30;38.10
76967;DHT22;65904;52.278;20.972;2023-06-10T12:15:23;38.50;37.30
76967;DHT22;65904;52.278;20.972;2023-06-10T12:18:15;38.80;37.60
76967;DHT22;65904;52.278;20.972;2023-06-10T12:21:02;39.20;37.50
76967;DHT22;65904;52.278;20.972;2023-06-10T12:24:08;39.80;35.40
76967;DHT22;65904;52.278;20.972;2023-06-10T12:26:55;39.30;35.70
76967;DHT22;65904;52.278;20.972;2023-06-10T12:29:51;40.00;34.80
76967;DHT22;65904;52.278;20.972;2023-06-10T12:32:40;41.60;34.80
76967;DHT22;65904;52.278;20.972;2023-06-10T12:35:28;41.50;34.50
76967;DHT22;65904;52.278;20.972;2023-06-10T12:38:17;41.20;34.80
76967;DHT22;65904;52.278;20.972;2023-06-10T12:41:06;41.50;34.50
76967;DHT22;65904;52.278;20.972;2023-06-10T12:43:52;41.30;34.90
76967;DHT22;65904;52.278;20.972;2023-06-10T12:46:39;41.90;34.80
76967;DHT22;65904;52.278;20.972;2023-06-10T12:49:25;42.40;34.00
76967;DHT22;65904;52.278;20.972;2023-06-10T12:52:13;42.70;33.60
76967;DHT22;65904;52.278;20.972;2023-06-10T12:55:00;41.80;33.50
76967;DHT22;65904;52.278;20.972;2023-06-10T12:57:48;42.10;33.40
76967;DHT22;65904;52.278;20.972;2023-06-10T13:00:35;42.10;33.50
76967;DHT22;65904;52.278;20.972;2023-06-10T13:03:21;41.90;33.70
76967;DHT22;65904;52.278;20.972;2023-06-10T13:06:07;41.90;33.60
76967;DHT22;65904;52.278;20.972;2023-06-10T13:08:55;40.50;34.30
76967;DHT22;65904;52.278;20.972;2023-06-10T13:11:41;39.00;35.90
76967;DHT22;65904;52.278;20.972;2023-06-10T13:14:27;38.20;36.60
76967;DHT22;65904;52.278;20.972;2023-06-10T13:17:13;39.20;36.40
76967;DHT22;65904;52.278;20.972;2023-06-10T13:20:00;40.40;35.90
76967;DHT22;65904;52.278;20.972;2023-06-10T13:22:47;40.40;35.30
76967;DHT22;65904;52.278;20.972;2023-06-10T13:25:35;38.90;36.30
76967;DHT22;65904;52.278;20.972;2023-06-10T13:28:21;38.30;37.30
76967;DHT22;65904;52.278;20.972;2023-06-10T13:31:08;39.20;36.60
76967;DHT22;65904;52.278;20.972;2023-06-10T13:33:54;40.60;35.90
76967;DHT22;65904;52.278;20.972;2023-06-10T13:36:40;41.10;35.40
76967;DHT22;65904;52.278;20.972;2023-06-10T13:39:26;41.80;34.40
76967;DHT22;65904;52.278;20.972;2023-06-10T13:42:14;41.40;33.20
76967;DHT22;65904;52.278;20.972;2023-06-10T13:45:00;40.10;33.90
76967;DHT22;65904;52.278;20.972;2023-06-10T13:47:47;40.50;34.10
76967;DHT22;65904;52.278;20.972;2023-06-10T13:50:33;41.30;32.60
76967;DHT22;65904;52.278;20.972;2023-06-10T13:53:19;41.90;33.00
76967;DHT22;65904;52.278;20.972;2023-06-10T13:56:05;42.60;33.70
76967;DHT22;65904;52.278;20.972;2023-06-10T13:58:53;42.90;33.40
76967;DHT22;65904;52.278;20.972;2023-06-10T14:01:40;41.00;33.60
76967;DHT22;65904;52.278;20.972;2023-06-10T14:04:27;41.30;33.50
76967;DHT22;65904;52.278;20.972;2023-06-10T14:07:13;42.70;33.10
76967;DHT22;65904;52.278;20.972;2023-06-10T14:10:00;43.00;32.60
76967;DHT22;65904;52.278;20.972;2023-06-10T14:12:46;43.30;32.90
76967;DHT22;65904;52.278;20.972;2023-06-10T14:15:34;43.30;33.10
76967;DHT22;65904;52.278;20.972;2023-06-10T14:18:20;43.40;33.10
76967;DHT22;65904;52.278;20.972;2023-06-10T14:21:06;43.50;32.60
76967;DHT22;65904;52.278;20.972;2023-06-10T14:23:52;43.60;32.60
76967;DHT22;65904;52.278;20.972;2023-06-10T14:26:39;42.80;32.70
76967;DHT22;65904;52.278;20.972;2023-06-10T14:29:25;42.30;33.40
76967;DHT22;65904;52.278;20.972;2023-06-10T14:32:15;40.90;34.20
76967;DHT22;65904;52.278;20.972;2023-06-10T14:35:01;39.00;35.80
76967;DHT22;65904;52.278;20.972;2023-06-10T14:37:47;37.20;37.20
76967;DHT22;65904;52.278;20.972;2023-06-10T14:40:33;37.90;37.50
76967;DHT22;65904;52.278;20.972;2023-06-10T14:43:20;39.50;36.60
76967;DHT22;65904;52.278;20.972;2023-06-10T14:46:05;40.70;35.50
76967;DHT22;65904;52.278;20.972;2023-06-10T14:48:53;41.50;34.80
76967;DHT22;65904;52.278;20.972;2023-06-10T14:51:39;41.50;34.00
76967;DHT22;65904;52.278;20.972;2023-06-10T14:54:26;39.70;34.10
76967;DHT22;65904;52.278;20.972;2023-06-10T14:57:12;37.90;35.50
76967;DHT22;65904;52.278;20.972;2023-06-10T14:59:58;36.80;36.60
76967;DHT22;65904;52.278;20.972;2023-06-10T15:02:44;35.70;38.50
76967;DHT22;65904;52.278;20.972;2023-06-10T15:05:33;35.60;40.00
76967;DHT22;65904;52.278;20.972;2023-06-10T15:08:21;36.80;39.90
76967;DHT22;65904;52.278;20.972;2023-06-10T15:11:08;38.50;37.90
76967;DHT22;65904;52.278;20.972;2023-06-10T15:13:54;39.20;36.90
76967;DHT22;65904;52.278;20.972;2023-06-10T15:16:40;39.10;36.00
76967;DHT22;65904;52.278;20.972;2023-06-10T15:19:26;39.50;35.80
76967;DHT22;65904;52.278;20.972;2023-06-10T15:22:14;40.00;35.50
76967;DHT22;65904;52.278;20.972;2023-06-10T15:25:00;40.20;36.00
76967;DHT22;65904;52.278;20.972;2023-06-10T15:27:46;40.20;36.20
76967;DHT22;65904;52.278;20.972;2023-06-10T15:30:33;40.40;35.90
76967;DHT22;65904;52.278;20.972;2023-06-10T15:33:19;38.40;37.20
76967;DHT22;65904;52.278;20.972;2023-06-10T15:36:05;36.90;38.40
76967;DHT22;65904;52.278;20.972;2023-06-10T15:38:53;35.20;39.50
76967;DHT22;65904;52.278;20.972;2023-06-10T15:41:39;34.20;40.80
76967;DHT22;65904;52.278;20.972;2023-06-10T15:44:25;35.00;41.10
76967;DHT22;65904;52.278;20.972;2023-06-10T15:47:11;36.50;39.80
76967;DHT22;65904;52.278;20.972;2023-06-10T15:49:58;37.60;38.90
76967;DHT22;65904;52.278;20.972;2023-06-10T15:52:44;38.30;38.50
76967;DHT22;65904;52.278;20.972;2023-06-10T15:55:31;38.10;38.00
76967;DHT22;65904;52.278;20.972;2023-06-10T15:58:17;36.60;38.90
76967;DHT22;65904;52.278;20.972;2023-06-10T16:01:03;34.80;40.70
76967;DHT22;65904;52.278;20.972;2023-06-10T16:03:51;33.50;43.00
76967;DHT22;65904;52.278;20.972;2023-06-10T16:06:37;32.70;44.80
76967;DHT22;65904;52.278;20.972;2023-06-10T16:09:23;32.00;45.90
76967;DHT22;65904;52.278;20.972;2023-06-10T16:12:11;31.50;46.50
76967;DHT22;65904;52.278;20.972;2023-06-10T16:14:57;32.10;45.40
76967;DHT22;65904;52.278;20.972;2023-06-10T16:17:43;32.40;45.10
76967;DHT22;65904;52.278;20.972;2023-06-10T16:20:30;32.20;45.30
76967;DHT22;65904;52.278;20.972;2023-06-10T16:23:19;31.90;45.70
76967;DHT22;65904;52.278;20.972;2023-06-10T16:26:06;31.20;47.00
76967;DHT22;65904;52.278;20.972;2023-06-10T16:28:54;31.00;47.40
76967;DHT22;65904;52.278;20.972;2023-06-10T16:31:40;30.60;47.70
76967;DHT22;65904;52.278;20.972;2023-06-10T16:34:27;30.30;48.50
76967;DHT22;65904;52.278;20.972;2023-06-10T16:37:13;30.10;48.80
76967;DHT22;65904;52.278;20.972;2023-06-10T16:40:00;30.00;49.40
76967;DHT22;65904;52.278;20.972;2023-06-10T16:42:46;29.80;48.70
76967;DHT22;65904;52.278;20.972;2023-06-10T16:45:33;30.00;48.60
76967;DHT22;65904;52.278;20.972;2023-06-10T16:48:19;30.00;48.60
76967;DHT22;65904;52.278;20.972;2023-06-10T16:51:05;29.70;48.30
76967;DHT22;65904;52.278;20.972;2023-06-10T16:53:51;29.80;48.20
76967;DHT22;65904;52.278;20.972;2023-06-10T16:56:37;29.70;48.30
76967;DHT22;65904;52.278;20.972;2023-06-10T16:59:24;29.60;49.00
76967;DHT22;65904;52.278;20.972;2023-06-10T17:02:11;29.50;49.80
76967;DHT22;65904;52.278;20.972;2023-06-10T17:04:57;29.20;50.00
76967;DHT22;65904;52.278;20.972;2023-06-10T17:07:44;29.00;50.50
76967;DHT22;65904;52.278;20.972;2023-06-10T17:10:32;29.00;51.20
76967;DHT22;65904;52.278;20.972;2023-06-10T17:13:20;28.80;51.10
76967;DHT22;65904;52.278;20.972;2023-06-10T17:16:06;28.20;51.10
76967;DHT22;65904;52.278;20.972;2023-06-10T17:18:53;28.00;51.40
76967;DHT22;65904;52.278;20.972;2023-06-10T17:21:39;27.50;51.90